Impacts TAF Board
For situational awareness. Not to be used for flight planning purposes.
IDs:

KPHL - Philadelphia Intl, PA, US

Issued at 0111 UTC 17 Jul 2019
Updated at 0126 UTC 17 Jul 2019
Potential Impact None Slight Moderate High
Time<<17/14Z 17/15Z 17/16Z 17/17Z 17/18Z 17/19Z 17/20Z 17/21Z 17/22Z 17/23Z 18/00Z 18/01Z 18/02Z>>
Type PRVL PRVL PRVL PRVL PRVL PRVL PRVL PRVL PRVL PRVL PRVL PRVL PRVL
VIS >6 >6 >6 >6 >6 >6 >6 >6 >6 >6 >6 >6 >6
CIG 200 200 200 200 200 200 200 200 200 50 50 50 50
Cover BKN BKN BKN BKN BKN BKN BKN BKN BKN BKN BKN BKN BKN
FltCat VFR VFR VFR VFR VFR VFR VFR VFR VFR VFR VFR VFR VFR
WX -- -- -- -- -- -- -- -- -- -SHRA VCTS -SHRA VCTS -SHRA VCTS -SHRA VCTS
WDir 220 220 220 220 220 220 220 220 220 240 240 240 240
WSpd 8 8 8 8 8 8 8 8 8 10 10 10 10
WGst -- -- -- -- -- -- -- -- -- -- -- -- --
Raw TAF
KPHL 170111Z 1701/1806 20009KT P6SM VCTS SCT060CB BKN200
  TEMPO 1702/1703 29010KT 6SM -SHRA BKN060
  FM170300 22008KT P6SM FEW060 BKN200
  FM172300 24010KT P6SM -SHRA VCTS BKN050CB


METAR Board
Radar Display
Forecast Discussion
For situational awareness. Not to be used for flight planning purposes.